createdAt,value
2022-11-16T00:01:42.857Z,15.80
2022-11-16T00:04:11.923Z,16.08
2022-11-16T00:06:40.167Z,17.02
2022-11-16T00:09:28.662Z,16.17
2022-11-16T00:11:58.221Z,16.23
2022-11-16T00:14:28.346Z,16.23
2022-11-16T00:16:57.967Z,16.92
2022-11-16T00:19:26.939Z,17.42
2022-11-16T00:21:55.412Z,18.38
2022-11-16T00:24:24.369Z,16.50
2022-11-16T00:26:54.327Z,17.38
2022-11-16T00:29:23.984Z,16.13
2022-11-16T00:31:52.250Z,15.88
2022-11-16T00:34:22.024Z,18.73
2022-11-16T00:36:49.916Z,16.92
2022-11-16T00:39:18.931Z,20.38
2022-11-16T00:41:48.185Z,16.35
2022-11-16T00:44:16.196Z,15.93
2022-11-16T00:46:44.158Z,16.50
2022-11-16T00:49:12.227Z,18.63
2022-11-16T00:51:41.670Z,21.90
2022-11-16T00:54:10.559Z,18.95
2022-11-16T00:56:39.410Z,18.95
2022-11-16T00:59:08.001Z,19.40
2022-11-16T01:01:35.929Z,17.70
2022-11-16T01:04:06.590Z,17.33
2022-11-16T01:06:34.390Z,19.88
2022-11-16T01:09:03.615Z,17.73
2022-11-16T01:11:48.700Z,18.73
2022-11-16T01:14:16.522Z,19.73
2022-11-16T01:16:44.675Z,19.35
2022-11-16T01:19:12.406Z,19.50
2022-11-16T01:21:40.158Z,21.60
2022-11-16T01:24:09.423Z,17.85
2022-11-16T01:26:37.143Z,19.60
2022-11-16T01:29:04.926Z,19.75
2022-11-16T01:31:37.971Z,21.38
2022-11-16T01:34:06.461Z,18.70
2022-11-16T01:36:36.613Z,18.77
2022-11-16T01:39:06.384Z,20.00
2022-11-16T01:41:46.257Z,21.30
2022-11-16T01:44:57.228Z,17.23
2022-11-16T01:47:25.103Z,22.15
2022-11-16T01:49:59.523Z,19.88
2022-11-16T01:55:00.542Z,18.65
2022-11-16T01:57:38.958Z,17.08
2022-11-16T02:00:12.218Z,14.90
2022-11-16T02:02:50.317Z,18.73
2022-11-16T02:05:41.311Z,16.85
2022-11-16T02:08:41.360Z,15.82
2022-11-16T02:11:28.592Z,16.55
2022-11-16T02:14:12.135Z,18.83
2022-11-16T02:16:48.252Z,19.13
2022-11-16T02:19:36.595Z,17.05
2022-11-16T02:22:12.465Z,19.10
2022-11-16T02:24:45.836Z,16.30
2022-11-16T02:27:37.906Z,16.60
2022-11-16T02:30:08.768Z,16.40
2022-11-16T02:32:49.741Z,14.35
2022-11-16T02:35:22.280Z,15.18
2022-11-16T02:37:57.238Z,16.92
2022-11-16T02:40:27.929Z,15.95
2022-11-16T02:43:00.455Z,16.30
2022-11-16T02:45:33.683Z,17.95
2022-11-16T02:48:07.384Z,16.27
2022-11-16T02:50:36.694Z,14.98
2022-11-16T02:53:04.757Z,13.77
2022-11-16T02:55:37.107Z,15.00
2022-11-16T02:58:07.972Z,14.30
2022-11-16T03:00:44.948Z,14.10
2022-11-16T03:03:22.908Z,15.73
2022-11-16T03:05:54.539Z,14.23
2022-11-16T03:08:28.164Z,13.02
2022-11-16T03:11:19.426Z,14.38
2022-11-16T03:13:49.587Z,14.70
2022-11-16T03:16:21.650Z,14.40
2022-11-16T03:18:52.069Z,13.70
2022-11-16T03:21:26.300Z,14.02
2022-11-16T03:23:54.519Z,13.65
2022-11-16T03:26:26.980Z,13.95
2022-11-16T03:29:02.208Z,13.63
2022-11-16T03:31:37.285Z,12.40
2022-11-16T03:34:10.951Z,14.63
2022-11-16T03:36:42.713Z,13.75
2022-11-16T03:39:15.832Z,15.80
2022-11-16T03:41:47.665Z,14.40
2022-11-16T03:44:18.352Z,14.45
2022-11-16T03:46:48.737Z,14.73
2022-11-16T03:49:17.768Z,14.88
2022-11-16T03:51:45.532Z,14.77
2022-11-16T03:54:13.890Z,15.40
2022-11-16T03:56:41.688Z,14.30
2022-11-16T03:59:09.759Z,13.85
2022-11-16T04:01:41.844Z,13.90
2022-11-16T04:04:28.826Z,16.35
2022-11-16T04:07:23.491Z,15.38
2022-11-16T04:10:09.063Z,14.75
2022-11-16T04:12:54.263Z,13.73
2022-11-16T04:15:39.432Z,12.35
2022-11-16T04:18:24.765Z,11.15
2022-11-16T04:21:11.238Z,13.45
2022-11-16T04:23:56.347Z,11.88
2022-11-16T04:26:44.896Z,13.50
2022-11-16T04:29:13.344Z,12.93
2022-11-16T04:31:58.519Z,10.95
2022-11-16T04:34:43.905Z,13.40
2022-11-16T04:37:34.419Z,10.73
2022-11-16T04:40:03.583Z,10.73
2022-11-16T04:42:31.517Z,9.40
2022-11-16T04:45:16.640Z,9.18
2022-11-16T04:47:51.860Z,10.85
2022-11-16T04:50:21.833Z,11.77
2022-11-16T04:52:52.403Z,11.77
2022-11-16T04:55:21.058Z,10.50
2022-11-16T04:57:50.235Z,11.45
2022-11-16T05:00:18.861Z,11.90
2022-11-16T05:02:46.932Z,11.82
2022-11-16T05:05:15.003Z,17.15
2022-11-16T05:07:45.438Z,13.82
2022-11-16T05:10:21.678Z,11.00
2022-11-16T05:12:50.724Z,10.25
2022-11-16T05:15:19.808Z,12.85
2022-11-16T05:17:48.896Z,12.70
2022-11-16T05:20:38.176Z,14.57
2022-11-16T05:23:26.564Z,12.30
2022-11-16T05:25:56.539Z,12.45
2022-11-16T05:28:24.319Z,11.20
2022-11-16T05:30:53.280Z,13.68
2022-11-16T05:33:23.966Z,12.30
2022-11-16T05:35:52.599Z,14.93
2022-11-16T05:38:21.332Z,11.70
2022-11-16T05:40:53.022Z,12.60
2022-11-16T05:43:22.420Z,11.45
2022-11-16T05:45:57.880Z,13.93
2022-11-16T05:48:25.620Z,11.45
2022-11-16T05:50:59.063Z,10.73
2022-11-16T05:53:27.813Z,13.10
2022-11-16T05:55:55.627Z,13.13
2022-11-16T05:58:26.243Z,11.95
2022-11-16T06:00:54.534Z,12.52
2022-11-16T06:03:23.189Z,13.38
2022-11-16T06:05:53.215Z,16.02
2022-11-16T06:08:21.280Z,15.48
2022-11-16T06:10:52.202Z,14.82
2022-11-16T06:13:19.965Z,13.57
2022-11-16T06:15:55.180Z,16.27
2022-11-16T06:18:23.580Z,16.33
2022-11-16T06:20:51.574Z,16.60
2022-11-16T06:23:21.958Z,17.27
2022-11-16T06:25:54.424Z,18.52
2022-11-16T06:28:23.020Z,20.17
2022-11-16T06:30:52.110Z,18.23
2022-11-16T06:33:20.308Z,20.15
2022-11-16T06:35:48.348Z,19.55
2022-11-16T06:38:20.609Z,21.85
2022-11-16T06:40:52.057Z,21.45
2022-11-16T06:43:21.000Z,19.77
2022-11-16T06:45:51.192Z,17.98
2022-11-16T06:48:21.208Z,22.85
2022-11-16T06:50:50.344Z,21.60
2022-11-16T06:53:23.558Z,21.60
2022-11-16T06:55:55.942Z,20.08
2022-11-16T06:58:23.788Z,20.13
2022-11-16T07:00:51.521Z,20.27
2022-11-16T07:03:20.580Z,18.80
2022-11-16T07:05:48.363Z,19.13
2022-11-16T07:08:18.248Z,17.27
2022-11-16T07:10:46.244Z,18.38
2022-11-16T07:13:14.088Z,16.30
2022-11-16T07:15:41.850Z,16.17
2022-11-16T07:18:10.273Z,20.73
2022-11-16T07:20:41.470Z,13.65
2022-11-16T07:23:13.994Z,16.48
2022-11-16T07:25:47.254Z,14.52
2022-11-16T07:28:22.402Z,14.07
2022-11-16T07:30:50.312Z,12.95
2022-11-16T07:33:24.723Z,11.00
2022-11-16T07:36:14.365Z,14.13
2022-11-16T07:38:42.771Z,14.50
2022-11-16T07:41:12.788Z,14.75
2022-11-16T07:43:52.956Z,13.85
2022-11-16T07:49:15.197Z,16.50
2022-11-16T07:51:56.624Z,13.23
2022-11-16T07:54:44.004Z,11.60
2022-11-16T07:57:12.081Z,12.10
2022-11-16T07:59:42.098Z,10.32
2022-11-16T08:02:10.621Z,12.07
2022-11-16T08:07:11.555Z,10.73
2022-11-16T08:09:46.997Z,13.63
2022-11-16T08:12:16.693Z,9.57
2022-11-16T08:14:44.820Z,8.88
2022-11-16T08:17:14.004Z,10.90
2022-11-16T08:19:42.368Z,10.63
2022-11-16T08:22:14.666Z,9.55
2022-11-16T08:24:43.328Z,9.30
2022-11-16T08:27:11.101Z,11.15
2022-11-16T08:29:39.082Z,12.90
2022-11-16T08:32:09.776Z,8.00
2022-11-16T08:34:38.034Z,9.35
2022-11-16T08:37:06.722Z,8.27
2022-11-16T08:39:45.352Z,10.57
2022-11-16T08:42:13.309Z,10.30
2022-11-16T08:44:46.318Z,12.02
2022-11-16T08:47:16.825Z,10.65
2022-11-16T08:49:53.751Z,10.55
2022-11-16T08:52:22.859Z,11.07
2022-11-16T08:54:53.564Z,7.07
2022-11-16T08:57:21.837Z,11.82
2022-11-16T08:59:54.434Z,10.75
2022-11-16T09:02:25.509Z,10.20
2022-11-16T09:04:53.651Z,8.93
2022-11-16T09:07:22.324Z,10.32
2022-11-16T09:09:50.227Z,9.07
2022-11-16T09:12:19.934Z,13.25
2022-11-16T09:14:47.836Z,8.90
2022-11-16T09:17:20.207Z,7.47
2022-11-16T09:19:50.593Z,12.60
2022-11-16T09:22:18.374Z,8.38
2022-11-16T09:24:46.155Z,9.73
2022-11-16T09:27:14.912Z,9.93
2022-11-16T09:29:44.045Z,10.05
2022-11-16T09:32:11.778Z,10.70
2022-11-16T09:34:39.547Z,10.40
2022-11-16T09:37:08.027Z,9.52
2022-11-16T09:39:35.777Z,10.32
2022-11-16T09:42:19.658Z,11.50
2022-11-16T09:45:04.582Z,10.20
2022-11-16T09:47:42.010Z,6.25
2022-11-16T09:50:31.977Z,9.63
2022-11-16T09:53:13.583Z,9.50
2022-11-16T09:55:48.396Z,10.18
2022-11-16T09:58:21.154Z,10.00
2022-11-16T10:00:57.268Z,8.57
2022-11-16T10:03:26.481Z,9.40
2022-11-16T10:06:00.871Z,12.32
2022-11-16T10:08:41.260Z,10.52
2022-11-16T10:11:24.717Z,9.35
2022-11-16T10:14:04.387Z,8.57
2022-11-16T10:16:41.267Z,7.35
2022-11-16T10:19:17.825Z,6.75
2022-11-16T10:21:54.749Z,11.40
2022-11-16T10:24:34.190Z,10.68
2022-11-16T10:27:28.419Z,9.13
2022-11-16T10:30:08.813Z,7.90
2022-11-16T10:32:42.091Z,7.40
2022-11-16T10:35:17.997Z,6.93
2022-11-16T10:37:49.722Z,8.32
2022-11-16T10:40:23.378Z,7.40
2022-11-16T10:43:03.283Z,8.73
2022-11-16T10:45:38.894Z,9.15
2022-11-16T10:48:18.627Z,8.57
2022-11-16T10:50:48.695Z,7.47
2022-11-16T10:53:26.540Z,10.50
2022-11-16T10:56:10.659Z,11.68
2022-11-16T10:58:52.207Z,8.25
2022-11-16T11:01:32.525Z,8.15
2022-11-16T11:04:16.393Z,8.85
2022-11-16T11:06:44.847Z,12.27
2022-11-16T11:09:21.635Z,9.73
2022-11-16T11:12:16.764Z,8.85
2022-11-16T11:14:59.893Z,8.27
2022-11-16T11:17:28.089Z,7.82
2022-11-16T11:20:01.568Z,7.38
2022-11-16T11:22:29.806Z,10.82
2022-11-16T11:24:57.718Z,8.07
2022-11-16T11:27:32.447Z,10.43
2022-11-16T11:30:01.338Z,8.00
2022-11-16T11:32:35.089Z,8.75
2022-11-16T11:35:06.421Z,8.63
2022-11-16T11:37:38.022Z,6.82
2022-11-16T11:40:23.665Z,8.57
2022-11-16T11:43:00.095Z,9.75
2022-11-16T11:45:35.379Z,8.07
2022-11-16T11:48:08.361Z,8.20
2022-11-16T11:50:49.020Z,10.57
2022-11-16T11:53:28.715Z,9.10
2022-11-16T11:55:58.668Z,9.15
2022-11-16T11:58:31.274Z,7.63
2022-11-16T12:01:33.374Z,7.95
2022-11-16T12:04:29.283Z,10.50
2022-11-16T12:07:12.760Z,7.63
2022-11-16T12:09:49.542Z,10.43
2022-11-16T12:12:31.965Z,8.27
2022-11-16T12:15:30.346Z,7.93
2022-11-16T12:18:11.745Z,6.80
2022-11-16T12:20:46.327Z,8.60
2022-11-16T12:23:44.624Z,7.78
2022-11-16T12:26:22.480Z,9.02
2022-11-16T12:29:04.174Z,9.43
2022-11-16T12:32:03.539Z,10.70
2022-11-16T12:34:45.404Z,8.85
2022-11-16T12:37:17.983Z,8.95
2022-11-16T12:40:01.252Z,11.23
2022-11-16T12:42:38.484Z,9.65
2022-11-16T12:45:19.068Z,6.57
2022-11-16T12:48:03.799Z,7.35
2022-11-16T12:50:51.035Z,5.78
2022-11-16T12:53:39.012Z,7.75
2022-11-16T12:56:16.282Z,8.40
2022-11-16T12:59:02.348Z,6.65
2022-11-16T13:01:37.393Z,6.57
2022-11-16T13:04:11.669Z,6.43
2022-11-16T13:06:44.105Z,8.25
2022-11-16T13:09:16.644Z,7.40
2022-11-16T13:11:50.769Z,8.40
2022-11-16T13:14:24.023Z,8.25
2022-11-16T13:16:53.214Z,7.78
2022-11-16T13:19:21.836Z,5.93
2022-11-16T13:21:56.148Z,6.55
2022-11-16T13:24:34.120Z,5.95
2022-11-16T13:27:23.991Z,7.10
2022-11-16T13:29:56.608Z,8.95
2022-11-16T13:32:34.780Z,7.15
2022-11-16T13:35:06.130Z,11.40
2022-11-16T13:37:47.247Z,7.40
2022-11-16T13:40:31.116Z,6.55
2022-11-16T13:43:05.916Z,7.60
2022-11-16T13:45:38.214Z,6.03
2022-11-16T13:48:18.312Z,7.55
2022-11-16T13:50:51.140Z,7.45
2022-11-16T13:56:17.804Z,8.80
2022-11-16T13:58:50.563Z,7.75
2022-11-16T14:01:20.157Z,6.95
2022-11-16T14:03:51.549Z,6.75
2022-11-16T14:06:57.244Z,7.50
2022-11-16T14:09:48.871Z,6.55
2022-11-16T14:12:56.368Z,6.47
2022-11-16T14:15:28.565Z,7.70
2022-11-16T14:17:59.789Z,7.80
2022-11-16T14:20:39.608Z,8.63
2022-11-16T14:23:17.256Z,5.07
2022-11-16T14:25:50.080Z,6.30
2022-11-16T14:28:41.973Z,5.82
2022-11-16T14:31:19.151Z,9.80
2022-11-16T14:33:51.953Z,5.53
2022-11-16T14:36:37.327Z,5.38
2022-11-16T14:39:38.350Z,8.82
2022-11-16T14:42:16.109Z,6.60
2022-11-16T14:44:44.587Z,7.30
2022-11-16T14:47:24.582Z,7.38
2022-11-16T14:49:53.016Z,8.65
2022-11-16T14:52:27.393Z,4.80
2022-11-16T14:55:00.108Z,8.00
2022-11-16T14:57:27.937Z,6.57
2022-11-16T15:00:09.400Z,8.48
2022-11-16T15:02:39.773Z,5.60
2022-11-16T15:05:08.337Z,8.65
2022-11-16T15:07:36.194Z,7.72
2022-11-16T15:10:04.521Z,7.43
2022-11-16T15:12:43.101Z,8.02
2022-11-16T15:15:16.063Z,6.43
2022-11-16T15:17:47.283Z,7.57
2022-11-16T15:20:19.621Z,9.18
2022-11-16T15:22:49.679Z,7.53
2022-11-16T15:25:26.856Z,7.47
2022-11-16T15:27:55.452Z,9.02
2022-11-16T15:30:25.759Z,7.50
2022-11-16T15:32:55.501Z,8.40
2022-11-16T15:35:25.141Z,11.68
2022-11-16T15:38:03.534Z,11.75
2022-11-16T15:40:31.756Z,9.30
2022-11-16T15:43:00.913Z,7.60
2022-11-16T15:45:29.763Z,9.05
2022-11-16T15:48:01.728Z,6.72
2022-11-16T15:50:30.193Z,8.93
2022-11-16T15:52:59.819Z,6.32
2022-11-16T15:55:34.977Z,10.80
2022-11-16T15:58:06.762Z,8.50
2022-11-16T16:00:36.669Z,11.27
2022-11-16T16:03:19.938Z,8.77
2022-11-16T16:05:48.776Z,6.80
2022-11-16T16:08:32.280Z,7.32
2022-11-16T16:11:04.198Z,7.35
2022-11-16T16:13:34.743Z,7.65
2022-11-16T16:16:28.966Z,8.80
2022-11-16T16:19:09.460Z,7.47
2022-11-16T16:21:44.012Z,9.25
2022-11-16T16:24:33.115Z,12.90
2022-11-16T16:27:00.896Z,8.95
2022-11-16T16:29:28.907Z,6.68
2022-11-16T16:31:57.132Z,7.05
2022-11-16T16:34:26.268Z,7.95
2022-11-16T16:36:53.988Z,10.07
2022-11-16T16:39:21.719Z,9.45
2022-11-16T16:41:49.464Z,9.80
2022-11-16T16:44:17.447Z,11.25
2022-11-16T16:46:45.247Z,7.30
2022-11-16T16:49:12.992Z,8.52
2022-11-16T16:51:42.043Z,10.68
2022-11-16T16:54:13.084Z,8.40
2022-11-16T16:56:40.965Z,8.35
2022-11-16T16:59:08.926Z,10.80
2022-11-16T17:01:36.823Z,10.70
2022-11-16T17:04:04.579Z,9.73
2022-11-16T17:06:32.474Z,11.00
2022-11-16T17:09:01.546Z,11.25
2022-11-16T17:11:29.854Z,10.45
2022-11-16T17:13:57.664Z,10.50
2022-11-16T17:16:25.403Z,8.00
2022-11-16T17:18:55.739Z,7.70
2022-11-16T17:21:23.876Z,10.77
2022-11-16T17:23:51.648Z,9.10
2022-11-16T17:26:20.974Z,7.55
2022-11-16T17:28:49.012Z,9.07
2022-11-16T17:31:17.494Z,9.20
2022-11-16T17:33:45.296Z,9.68
2022-11-16T17:36:14.111Z,10.10
2022-11-16T17:38:41.870Z,10.73
2022-11-16T17:41:12.596Z,7.07
2022-11-16T17:43:42.951Z,7.97
2022-11-16T17:46:12.634Z,10.25
2022-11-16T17:48:42.198Z,9.40
2022-11-16T17:51:10.704Z,8.55
2022-11-16T17:53:39.874Z,7.00
2022-11-16T17:56:08.652Z,9.63
2022-11-16T17:58:36.383Z,7.55
2022-11-16T18:01:06.221Z,7.38
2022-11-16T18:03:37.260Z,7.22
2022-11-16T18:06:07.442Z,8.23
2022-11-16T18:08:36.921Z,11.05
2022-11-16T18:11:06.300Z,9.48
2022-11-16T18:13:34.709Z,9.73
2022-11-16T18:16:06.313Z,8.82
2022-11-16T18:18:34.254Z,12.05
2022-11-16T18:21:02.364Z,10.07
2022-11-16T18:23:30.361Z,7.53
2022-11-16T18:25:58.121Z,11.45
2022-11-16T18:28:26.111Z,7.03
2022-11-16T18:30:53.897Z,9.50
2022-11-16T18:33:27.778Z,12.35
2022-11-16T18:35:58.093Z,10.70
2022-11-16T18:38:26.190Z,14.30
2022-11-16T18:41:04.570Z,11.32
2022-11-16T18:43:34.051Z,9.70
2022-11-16T18:46:02.356Z,8.23
2022-11-16T18:48:31.626Z,9.20
2022-11-16T18:51:00.163Z,9.10
2022-11-16T18:53:28.107Z,11.48
2022-11-16T18:55:58.134Z,13.32
2022-11-16T19:01:18.016Z,10.27
2022-11-16T19:03:47.298Z,11.15
2022-11-16T19:06:17.690Z,9.80
2022-11-16T19:08:50.461Z,7.00
2022-11-16T19:11:22.017Z,7.38
2022-11-16T19:13:53.666Z,7.40
2022-11-16T19:16:21.471Z,9.02
2022-11-16T19:18:50.753Z,7.93
2022-11-16T19:21:19.388Z,7.70
2022-11-16T19:23:48.670Z,9.00
2022-11-16T19:26:18.860Z,11.70
2022-11-16T19:28:48.139Z,9.82
2022-11-16T19:31:18.303Z,7.55
2022-11-16T19:33:46.863Z,9.50
2022-11-16T19:36:17.516Z,7.63
2022-11-16T19:38:46.203Z,8.63
2022-11-16T19:41:15.339Z,8.57
2022-11-16T19:43:43.315Z,5.75
2022-11-16T19:46:12.354Z,8.55
2022-11-16T19:48:41.210Z,9.45
2022-11-16T19:51:10.258Z,7.35
2022-11-16T19:53:40.423Z,8.77
2022-11-16T19:56:11.314Z,5.75
2022-11-16T19:58:39.390Z,8.10
2022-11-16T20:01:08.963Z,7.88
2022-11-16T20:03:38.265Z,8.02
2022-11-16T20:06:11.408Z,8.25
2022-11-16T20:08:42.095Z,5.85
2022-11-16T20:11:14.256Z,7.03
2022-11-16T20:13:42.999Z,9.85
2022-11-16T20:16:12.589Z,6.50
2022-11-16T20:18:41.844Z,10.02
2022-11-16T20:21:13.724Z,9.43
2022-11-16T20:23:44.555Z,7.15
2022-11-16T20:26:13.539Z,7.82
2022-11-16T20:28:43.251Z,8.43
2022-11-16T20:31:12.836Z,7.72
2022-11-16T20:33:40.815Z,7.90
2022-11-16T20:36:10.907Z,9.77
2022-11-16T20:38:39.888Z,7.35
2022-11-16T20:41:14.187Z,6.90
2022-11-16T20:43:42.809Z,8.27
2022-11-16T20:46:11.623Z,8.68
2022-11-16T20:48:40.719Z,7.38
2022-11-16T20:51:10.766Z,7.78
2022-11-16T20:53:38.917Z,7.20
2022-11-16T20:56:08.518Z,8.10
2022-11-16T20:58:37.989Z,6.15
2022-11-16T21:01:08.749Z,7.80
2022-11-16T21:03:37.019Z,7.32
2022-11-16T21:06:08.454Z,7.78
2022-11-16T21:08:37.481Z,9.88
2022-11-16T21:11:11.169Z,9.48
2022-11-16T21:13:57.575Z,6.72
2022-11-16T21:16:25.567Z,6.97
2022-11-16T21:18:54.466Z,7.72
2022-11-16T21:21:22.603Z,7.75
2022-11-16T21:23:52.465Z,6.82
2022-11-16T21:26:22.021Z,9.68
2022-11-16T21:28:51.311Z,8.73
2022-11-16T21:31:21.113Z,9.45
2022-11-16T21:33:49.060Z,8.40
2022-11-16T21:36:18.272Z,9.00
2022-11-16T21:38:46.880Z,8.77
2022-11-16T21:41:16.326Z,9.05
2022-11-16T21:43:44.246Z,7.38
2022-11-16T21:46:15.016Z,7.97
2022-11-16T21:48:43.124Z,10.60
2022-11-16T21:51:12.306Z,9.57
2022-11-16T21:53:40.735Z,10.02
2022-11-16T21:56:12.729Z,9.10
2022-11-16T21:58:40.717Z,8.77
2022-11-16T22:01:09.548Z,9.25
2022-11-16T22:03:39.108Z,8.98
2022-11-16T22:06:26.621Z,9.40
2022-11-16T22:08:54.311Z,9.35
2022-11-16T22:11:22.453Z,9.27
2022-11-16T22:13:50.852Z,8.18
2022-11-16T22:16:20.914Z,8.70
2022-11-16T22:18:50.109Z,9.93
2022-11-16T22:21:18.117Z,7.50
2022-11-16T22:23:46.090Z,9.30
2022-11-16T22:26:14.826Z,9.63
2022-11-16T22:28:42.831Z,10.70
2022-11-16T22:31:12.429Z,8.27
2022-11-16T22:33:40.801Z,6.85
2022-11-16T22:36:11.457Z,10.05
2022-11-16T22:38:39.250Z,10.27
2022-11-16T22:41:07.354Z,10.10
2022-11-16T22:43:35.953Z,8.73
2022-11-16T22:46:06.106Z,8.88
2022-11-16T22:48:35.548Z,9.75
2022-11-16T22:51:04.880Z,10.05
2022-11-16T22:53:35.584Z,8.05
2022-11-16T22:56:08.096Z,10.40
2022-11-16T22:58:36.317Z,8.25
2022-11-16T23:01:04.715Z,9.43
2022-11-16T23:03:32.813Z,10.40
2022-11-16T23:06:00.920Z,8.15
2022-11-16T23:08:28.974Z,10.32
2022-11-16T23:11:19.719Z,9.27
2022-11-16T23:14:05.091Z,10.45
2022-11-16T23:16:33.772Z,9.07
2022-11-16T23:19:01.540Z,9.60
2022-11-16T23:21:46.830Z,7.95
2022-11-16T23:24:33.852Z,9.32
2022-11-16T23:27:22.259Z,10.63
2022-11-16T23:29:50.360Z,9.85
2022-11-16T23:32:18.150Z,8.88
2022-11-16T23:34:45.880Z,10.60
2022-11-16T23:37:13.644Z,10.25
2022-11-16T23:39:41.370Z,12.60
2022-11-16T23:42:28.212Z,12.50
2022-11-16T23:44:56.186Z,10.35
2022-11-16T23:47:24.075Z,11.73
2022-11-16T23:49:51.801Z,11.73
2022-11-16T23:52:19.812Z,11.02
2022-11-16T23:54:47.525Z,12.27
2022-11-16T23:57:16.679Z,10.20
2022-11-16T23:59:44.444Z,10.02
